Time;durP1;ratioP1;P1;durP2;ratioP2;P2;SDS_P1;SDS_P2;PMS_P1;PMS_P2;Temp;Humidity;BMP_temperature;BMP_pressure;BME280_temperature;BME280_humidity;BME280_pressure;Samples;Min_cycle;Max_cycle;Signal;HPM_P1;HPM_P2
2023/03/03 00:02:00;;;;;;;81.30;60.88;;;;;;;-1.07;98.21;95761.03;5043468;28;20021;-57
2023/03/03 00:04:26;;;;;;;111.43;78.53;;;;;;;-1.09;98.66;95765.44;5034736;28;20102;-58
2023/03/03 00:06:51;;;;;;;155.40;97.72;;;;;;;-1.06;98.43;95767.03;5045785;28;20063;-57
2023/03/03 00:09:16;;;;;;;182.20;102.97;;;;;;;-1.04;98.22;95757.44;5038264;28;20036;-59
2023/03/03 00:11:42;;;;;;;190.35;108.00;;;;;;;-1.01;97.23;95770.22;5039035;28;20017;-56
2023/03/03 00:14:29;;;;;;;156.50;95.53;;;;;;;-1.04;97.67;95760.88;5039495;28;20039;-56
2023/03/03 00:16:56;;;;;;;181.70;106.18;;;;;;;-1.10;97.83;95766.34;5040671;28;20025;-62
2023/03/03 00:19:22;;;;;;;157.95;97.65;;;;;;;-1.13;98.17;95766.44;5037043;28;20187;-68
2023/03/03 00:21:50;;;;;;;141.07;86.07;;;;;;;-1.18;98.28;95765.81;5045392;28;20062;-64
2023/03/03 00:24:34;;;;;;;132.10;81.35;;;;;;;-1.21;98.75;95766.81;5045959;28;20055;-63
2023/03/03 00:27:07;;;;;;;118.00;80.93;;;;;;;-1.23;98.43;95771.19;5048257;28;20489;-63
2023/03/03 00:29:35;;;;;;;108.28;70.28;;;;;;;-1.25;98.60;95759.25;5038143;28;20039;-63
2023/03/03 00:32:19;;;;;;;105.00;72.82;;;;;;;-1.29;99.00;95763.72;5041943;28;20025;-63
2023/03/03 00:34:44;;;;;;;94.13;67.88;;;;;;;-1.29;98.55;95758.53;5040483;28;20035;-63
2023/03/03 00:37:39;;;;;;;88.60;66.05;;;;;;;-1.27;100.00;95768.81;5041620;28;20029;-62
2023/03/03 00:40:34;;;;;;;93.30;66.68;;;;;;;-1.30;99.21;95764.63;5043259;28;20036;-62
2023/03/03 00:43:01;;;;;;;86.82;63.55;;;;;;;-1.34;99.41;95763.91;5043663;28;20020;-63
2023/03/03 00:45:55;;;;;;;89.82;68.70;;;;;;;-1.34;99.35;95763.91;5057239;28;20479;-63
2023/03/03 00:48:22;;;;;;;116.13;83.00;;;;;;;-1.36;99.68;95759.72;5033830;28;20040;-63
2023/03/03 00:50:48;;;;;;;103.20;77.18;;;;;;;-1.39;99.49;95765.03;5040111;28;20036;-62
2023/03/03 00:53:18;;;;;;;94.95;73.72;;;;;;;-1.43;100.00;95760.91;5035426;28;20038;-63
2023/03/03 00:55:45;;;;;;;86.20;64.35;;;;;;;-1.49;99.80;95765.41;5048723;28;20103;-55
2023/03/03 00:58:10;;;;;;;76.85;57.95;;;;;;;-1.46;99.35;95760.13;5042617;28;20502;-63
2023/03/03 01:00:37;;;;;;;62.78;52.38;;;;;;;-1.46;100.00;95764.47;5044341;28;20021;-58
2023/03/03 01:03:06;;;;;;;67.63;55.47;;;;;;;-1.41;98.86;95772.00;5046931;28;20024;-54
2023/03/03 01:05:32;;;;;;;66.82;52.05;;;;;;;-1.40;98.79;95769.34;5042153;28;20444;-50
2023/03/03 01:07:57;;;;;;;68.25;53.40;;;;;;;-1.37;98.37;95774.38;5046954;28;20529;-56
2023/03/03 01:10:25;;;;;;;69.13;55.53;;;;;;;-1.33;97.97;95775.94;5046055;28;20047;-55
2023/03/03 01:12:50;;;;;;;68.53;56.92;;;;;;;-1.36;99.25;95775.22;5044271;28;20040;-55
2023/03/03 01:15:16;;;;;;;72.13;56.65;;;;;;;-1.41;99.51;95778.00;5040492;28;20029;-62
2023/03/03 01:17:42;;;;;;;71.95;54.47;;;;;;;-1.37;99.83;95778.72;5041526;28;20036;-68
2023/03/03 01:20:09;;;;;;;66.43;53.42;;;;;;;-1.34;99.62;95776.00;5038953;28;20024;-57
2023/03/03 01:22:35;;;;;;;69.82;52.80;;;;;;;-1.24;99.02;95779.84;5040999;28;20033;-56
2023/03/03 01:25:02;;;;;;;65.45;51.38;;;;;;;-1.17;98.81;95777.84;5038454;28;20033;-57
2023/03/03 01:27:28;;;;;;;71.30;54.40;;;;;;;-1.16;99.21;95777.78;5041198;28;20043;-58
2023/03/03 01:29:55;;;;;;;62.72;52.65;;;;;;;-1.10;99.53;95775.81;5038905;28;20449;-57
2023/03/03 01:32:21;;;;;;;62.75;52.33;;;;;;;-1.06;99.22;95773.03;5041483;28;20030;-57
2023/03/03 01:34:46;;;;;;;67.88;53.50;;;;;;;-0.99;99.10;95780.50;5038523;28;20490;-63
2023/03/03 01:37:11;;;;;;;69.72;53.97;;;;;;;-0.95;98.75;95775.16;5035288;28;20079;-63
2023/03/03 01:39:37;;;;;;;68.30;54.05;;;;;;;-0.92;99.32;95759.50;5043487;28;20026;-63
2023/03/03 01:42:02;;;;;;;77.50;57.65;;;;;;;-0.84;99.75;95763.47;5048097;28;20079;-63
2023/03/03 01:44:28;;;;;;;75.20;56.58;;;;;;;-0.81;99.67;95768.50;5044384;28;20831;-63
2023/03/03 01:46:59;;;;;;;68.55;55.45;;;;;;;-0.75;99.19;95765.63;5051887;28;20044;-63
2023/03/03 01:49:38;;;;;;;70.57;53.47;;;;;;;-0.73;99.12;95769.00;5041451;28;20017;-63
2023/03/03 01:52:12;;;;;;;67.40;53.17;;;;;;;-0.69;99.12;95764.50;5047740;28;20500;-64
2023/03/03 01:54:46;;;;;;;72.53;53.15;;;;;;;-0.62;100.00;95776.25;5043343;28;20517;-60
2023/03/03 01:57:17;;;;;;;67.57;53.13;;;;;;;-0.62;100.00;95769.31;5047990;28;20174;-63
2023/03/03 01:59:48;;;;;;;71.22;53.90;;;;;;;-0.54;99.22;95768.13;5036686;28;20060;-62
2023/03/03 02:02:15;;;;;;;67.15;54.83;;;;;;;-0.45;98.54;95768.50;5045631;28;20033;-63
2023/03/03 02:04:40;;;;;;;61.88;51.25;;;;;;;-0.39;98.75;95777.75;5046620;28;20103;-62
2023/03/03 02:07:09;;;;;;;68.00;53.40;;;;;;;-0.34;98.77;95774.94;5043252;28;20041;-62
2023/03/03 02:09:58;;;;;;;62.50;52.33;;;;;;;-0.28;99.41;95768.66;5049670;28;20029;-63
2023/03/03 02:12:38;;;;;;;66.85;51.83;;;;;;;-0.31;100.00;95765.28;5038173;28;20028;-53
2023/03/03 02:15:18;;;;;;;64.93;52.35;;;;;;;-0.32;99.86;95773.97;5042361;28;20063;-64
2023/03/03 02:17:45;;;;;;;65.55;53.75;;;;;;;-0.27;99.33;95775.50;5041415;28;20506;-60
2023/03/03 02:20:21;;;;;;;210.45;120.30;;;;;;;-0.26;99.23;95779.75;5031468;28;20024;-61
2023/03/03 02:22:52;;;;;;;199.07;116.70;;;;;;;-0.21;99.48;95776.03;5040330;28;20034;-60
2023/03/03 02:25:32;;;;;;;106.95;73.35;;;;;;;-0.17;100.00;95768.94;5043141;28;20033;-60
2023/03/03 02:27:59;;;;;;;75.05;57.33;;;;;;;-0.14;99.88;95776.56;5047113;28;20029;-60
2023/03/03 02:30:24;;;;;;;84.13;61.17;;;;;;;-0.12;100.00;95777.31;5033391;28;20025;-60
2023/03/03 02:32:50;;;;;;;66.30;52.13;;;;;;;-0.07;100.00;95771.94;5049261;28;20021;-66
2023/03/03 02:35:24;;;;;;;62.67;51.55;;;;;;;-0.06;100.00;95776.19;5043919;28;20029;-60
2023/03/03 02:37:50;;;;;;;65.63;53.10;;;;;;;-0.05;100.00;95773.53;5042585;28;20060;-60
2023/03/03 02:40:18;;;;;;;63.92;50.47;;;;;;;-0.04;100.00;95766.59;5037509;28;20106;-60
2023/03/03 02:42:45;;;;;;;60.72;52.03;;;;;;;0.01;100.00;95768.97;5043892;28;20037;-60
2023/03/03 02:45:10;;;;;;;56.20;48.65;;;;;;;0.03;100.00;95767.16;5046091;28;20024;-61
2023/03/03 02:47:36;;;;;;;59.05;49.45;;;;;;;0.11;100.00;95770.19;5042811;28;20025;-60
2023/03/03 02:50:01;;;;;;;62.75;50.47;;;;;;;0.17;100.00;95772.50;5046406;28;20045;-59
2023/03/03 02:52:26;;;;;;;58.60;47.88;;;;;;;0.17;100.00;95775.06;5041034;28;20491;-63
2023/03/03 02:54:52;;;;;;;61.95;49.13;;;;;;;0.14;100.00;95775.22;5043458;28;20108;-58
2023/03/03 02:57:17;;;;;;;58.72;47.67;;;;;;;0.19;100.00;95773.25;5043627;28;20136;-57
2023/03/03 02:59:42;;;;;;;59.15;47.95;;;;;;;0.22;100.00;95772.25;5035498;28;20112;-58
2023/03/03 03:02:08;;;;;;;59.78;48.00;;;;;;;0.24;100.00;95773.84;5048821;28;20024;-57
2023/03/03 03:04:33;;;;;;;59.67;48.85;;;;;;;0.24;100.00;95771.25;5055370;28;20037;-56
2023/03/03 03:06:59;;;;;;;60.03;51.50;;;;;;;0.26;100.00;95777.19;5056404;28;20074;-57
2023/03/03 03:09:25;;;;;;;57.38;47.13;;;;;;;0.31;100.00;95765.75;5044513;28;20080;-68
2023/03/03 03:11:50;;;;;;;56.42;47.13;;;;;;;0.33;100.00;95769.97;5043828;28;20025;-60
2023/03/03 03:14:16;;;;;;;59.35;47.80;;;;;;;0.38;100.00;95772.34;5044378;28;20029;-55
2023/03/03 03:16:41;;;;;;;59.63;49.13;;;;;;;0.40;100.00;95767.91;5038538;28;20029;-57
2023/03/03 03:19:07;;;;;;;55.72;46.80;;;;;;;0.41;100.00;95772.16;5049785;28;20402;-57
2023/03/03 03:21:32;;;;;;;59.75;49.78;;;;;;;0.42;100.00;95768.66;5050677;28;20029;-54
2023/03/03 03:23:58;;;;;;;59.47;48.97;;;;;;;0.41;100.00;95772.16;5044085;28;20025;-55
2023/03/03 03:26:24;;;;;;;61.40;50.80;;;;;;;0.41;100.00;95772.16;5043178;28;20033;-54
2023/03/03 03:28:50;;;;;;;52.63;44.63;;;;;;;0.46;100.00;95772.78;5040268;28;20406;-62
2023/03/03 03:31:18;;;;;;;61.67;49.95;;;;;;;0.50;100.00;95774.28;5047596;28;20026;-67
2023/03/03 03:33:43;;;;;;;52.75;46.60;;;;;;;0.51;100.00;95772.53;5043915;28;20048;-62
2023/03/03 03:36:09;;;;;;;54.13;47.80;;;;;;;0.53;100.00;95775.91;5048628;28;20483;-64
2023/03/03 03:38:35;;;;;;;59.50;49.30;;;;;;;0.57;100.00;95782.59;5040754;28;20076;-63
2023/03/03 03:41:02;;;;;;;56.33;47.83;;;;;;;0.55;100.00;95772.31;5041785;28;20116;-62
2023/03/03 03:43:27;;;;;;;53.47;46.88;;;;;;;0.55;100.00;95777.50;5026366;28;20029;-63
2023/03/03 03:45:52;;;;;;;57.25;45.88;;;;;;;0.60;100.00;95773.84;5053416;28;20091;-63
2023/03/03 03:48:18;;;;;;;56.92;46.50;;;;;;;0.63;100.00;95786.63;5038497;28;20406;-57
2023/03/03 03:50:46;;;;;;;51.95;45.75;;;;;;;0.61;100.00;95775.50;5043126;28;20109;-63
2023/03/03 03:53:11;;;;;;;59.05;48.20;;;;;;;0.62;100.00;95779.78;5040908;28;20037;-64
2023/03/03 03:55:36;;;;;;;55.13;47.25;;;;;;;0.69;100.00;95783.72;5039577;28;20024;-63
2023/03/03 03:58:02;;;;;;;60.92;48.60;;;;;;;0.61;100.00;95784.09;5041004;28;20032;-63
2023/03/03 04:00:27;;;;;;;54.17;46.53;;;;;;;0.57;100.00;95783.44;5042968;28;20497;-63
2023/03/03 04:02:52;;;;;;;54.58;48.53;;;;;;;0.61;100.00;95783.28;5035672;28;20035;-63
2023/03/03 04:05:18;;;;;;;59.33;48.22;;;;;;;0.62;100.00;95783.19;5042943;28;20490;-63
2023/03/03 04:07:43;;;;;;;56.17;46.28;;;;;;;0.63;100.00;95784.03;5034334;28;20041;-67
2023/03/03 04:10:10;;;;;;;52.78;45.63;;;;;;;0.65;100.00;95795.16;5042788;28;20024;-66
2023/03/03 04:12:38;;;;;;;55.35;46.72;;;;;;;0.68;100.00;95789.81;5035904;28;20028;-62
2023/03/03 04:15:09;;;;;;;53.53;47.25;;;;;;;0.71;100.00;95789.66;5044527;28;20032;-63
2023/03/03 04:17:35;;;;;;;57.53;47.70;;;;;;;0.76;100.00;95798.03;5043963;28;20059;-63
2023/03/03 04:20:02;;;;;;;50.95;44.33;;;;;;;0.76;100.00;95798.03;5043128;28;20483;-63
2023/03/03 04:22:32;;;;;;;55.10;46.22;;;;;;;0.76;100.00;95792.00;5044015;28;20032;-62
2023/03/03 04:24:58;;;;;;;53.25;46.47;;;;;;;0.79;100.00;95797.88;5041266;28;20017;-63
2023/03/03 04:27:23;;;;;;;56.97;47.45;;;;;;;0.80;100.00;95789.19;5040200;28;20044;-61
2023/03/03 04:29:48;;;;;;;55.90;46.65;;;;;;;0.84;100.00;95792.44;5045551;28;20025;-64
2023/03/03 04:32:14;;;;;;;54.13;46.42;;;;;;;0.87;100.00;95794.88;5051262;28;20033;-68
2023/03/03 04:34:39;;;;;;;57.67;46.40;;;;;;;0.87;100.00;95789.69;5054801;28;20024;-68
2023/03/03 04:37:04;;;;;;;56.97;46.33;;;;;;;0.84;100.00;95795.88;5046174;28;20029;-68
2023/03/03 04:39:30;;;;;;;56.15;46.75;;;;;;;0.88;100.00;95788.75;5044823;28;20029;-68
2023/03/03 04:41:55;;;;;;;55.78;46.90;;;;;;;0.87;100.00;95788.88;5048159;28;20056;-67
2023/03/03 04:44:21;;;;;;;53.75;46.38;;;;;;;0.87;100.00;95797.47;5050115;28;20024;-68
2023/03/03 04:46:46;;;;;;;55.28;48.35;;;;;;;0.88;100.00;95795.72;5049397;28;20028;-62
2023/03/03 04:49:11;;;;;;;59.53;49.25;;;;;;;0.90;100.00;95789.56;5049458;28;20550;-68
2023/03/03 04:51:37;;;;;;;60.03;49.35;;;;;;;0.92;100.00;95787.72;5049354;28;20029;-63
2023/03/03 04:54:02;;;;;;;53.20;46.47;;;;;;;0.92;100.00;95786.88;5049037;28;20013;-62
2023/03/03 04:56:30;;;;;;;55.78;45.85;;;;;;;0.90;100.00;95783.50;5038783;28;20553;-62
2023/03/03 04:58:55;;;;;;;54.55;46.75;;;;;;;0.89;100.00;95789.63;5040796;28;20028;-63
2023/03/03 05:01:21;;;;;;;54.30;48.10;;;;;;;0.88;100.00;95787.94;5060636;28;20025;-63
2023/03/03 05:03:46;;;;;;;56.45;48.10;;;;;;;0.85;100.00;95781.16;5049007;28;20371;-64
2023/03/03 05:06:12;;;;;;;57.65;47.28;;;;;;;0.84;100.00;95782.06;5049412;28;20082;-62
2023/03/03 05:08:37;;;;;;;51.45;44.40;;;;;;;0.84;100.00;95787.25;5047497;28;20044;-66
2023/03/03 05:11:03;;;;;;;54.72;47.17;;;;;;;0.88;100.00;95785.34;5041350;28;20040;-69
2023/03/03 05:13:29;;;;;;;52.35;44.08;;;;;;;0.91;100.00;95777.41;5041948;28;20025;-68
2023/03/03 05:15:55;;;;;;;64.55;52.17;;;;;;;0.92;100.00;95782.53;5045290;28;20502;-68
2023/03/03 05:18:22;;;;;;;59.45;49.55;;;;;;;0.90;100.00;95778.31;5044986;28;20621;-68
2023/03/03 05:20:49;;;;;;;58.47;48.25;;;;;;;0.89;100.00;95774.91;5029061;28;20099;-69
2023/03/03 05:23:15;;;;;;;54.58;48.42;;;;;;;0.92;100.00;95771.31;5034284;28;20118;-71
2023/03/03 05:25:41;;;;;;;57.63;49.28;;;;;;;0.91;100.00;95780.84;5050773;28;20052;-57
2023/03/03 05:28:07;;;;;;;58.47;48.67;;;;;;;0.92;100.00;95776.50;5052351;28;20060;-63
2023/03/03 05:30:33;;;;;;;54.63;48.58;;;;;;;0.88;100.00;95787.94;5052713;28;20021;-61
2023/03/03 05:32:59;;;;;;;55.15;48.90;;;;;;;0.89;100.00;95777.50;5048917;28;20522;-61
2023/03/03 05:35:25;;;;;;;55.97;47.35;;;;;;;0.89;100.00;95784.44;5050995;28;20056;-62
2023/03/03 05:37:51;;;;;;;54.58;47.08;;;;;;;0.88;100.00;95785.34;5052762;28;20025;-61
2023/03/03 05:40:17;;;;;;;55.47;46.38;;;;;;;0.88;100.00;95786.19;5052860;28;20017;-61
2023/03/03 05:42:43;;;;;;;53.47;46.85;;;;;;;0.87;100.00;95789.69;5051759;28;20103;-61
2023/03/03 05:45:09;;;;;;;55.38;46.15;;;;;;;0.91;100.00;95786.03;5065827;28;20565;-58
2023/03/03 05:47:34;;;;;;;63.05;51.05;;;;;;;0.97;100.00;95787.44;5046008;28;20029;-58
2023/03/03 05:50:00;;;;;;;60.05;49.30;;;;;;;1.08;98.90;95790.34;5045124;28;20034;-64
2023/03/03 05:52:25;;;;;;;64.40;52.05;;;;;;;0.99;99.82;95801.16;5053784;28;20052;-64
2023/03/03 05:54:50;;;;;;;55.13;47.85;;;;;;;0.94;100.00;95798.00;5052227;28;20082;-65
2023/03/03 05:57:16;;;;;;;65.03;54.17;;;;;;;0.94;100.00;95798.00;5039488;28;20103;-63
2023/03/03 05:59:41;;;;;;;111.25;73.13;;;;;;;0.95;100.00;95807.44;5052040;28;20537;-63
2023/03/03 06:02:06;;;;;;;121.75;80.45;;;;;;;0.93;100.00;95804.09;5052372;28;20733;-64
2023/03/03 06:04:33;;;;;;;82.88;59.47;;;;;;;0.94;100.00;95810.94;5051903;28;20041;-64
2023/03/03 06:06:58;;;;;;;79.68;59.83;;;;;;;0.94;100.00;95813.53;5059418;28;20054;-69
2023/03/03 06:09:25;;;;;;;58.90;48.67;;;;;;;0.95;100.00;95812.63;5064747;28;20048;-68
2023/03/03 06:11:52;;;;;;;54.28;45.97;;;;;;;0.93;100.00;95817.91;5052351;28;20029;-68
2023/03/03 06:14:21;;;;;;;52.90;44.83;;;;;;;0.89;99.73;95821.59;5048577;28;20037;-68
2023/03/03 06:16:47;;;;;;;51.00;43.40;;;;;;;0.83;99.30;95819.28;5034447;28;20512;-69
2023/03/03 06:19:13;;;;;;;55.17;47.80;;;;;;;0.85;99.88;95823.47;5045876;28;20028;-67
2023/03/03 06:21:39;;;;;;;57.47;48.83;;;;;;;0.90;99.27;95822.41;5051381;28;20525;-68
2023/03/03 06:24:05;;;;;;;60.42;48.30;;;;;;;0.91;99.73;95821.47;5060128;28;20048;-66
2023/03/03 06:26:34;;;;;;;56.65;46.58;;;;;;;0.91;99.99;95824.06;5048219;28;20033;-66
2023/03/03 06:29:00;;;;;;;57.58;47.97;;;;;;;0.93;99.61;95825.69;5051467;28;20391;-66
2023/03/03 06:31:26;;;;;;;55.17;48.00;;;;;;;0.88;100.00;95829.41;5049575;28;20055;-66
2023/03/03 06:33:52;;;;;;;60.03;50.22;;;;;;;0.88;99.61;95825.06;5051591;28;20020;-67
2023/03/03 06:36:17;;;;;;;60.70;51.85;;;;;;;0.90;99.70;95835.38;5047919;28;20029;-65
2023/03/03 06:38:43;;;;;;;56.72;48.78;;;;;;;0.92;99.68;95838.72;5049739;28;20095;-64
2023/03/03 06:41:08;;;;;;;58.10;49.63;;;;;;;0.95;99.80;95833.38;5041481;28;20048;-65
2023/03/03 06:43:35;;;;;;;59.30;50.47;;;;;;;1.02;99.10;95839.06;5045113;28;20029;-60
2023/03/03 06:46:01;;;;;;;59.38;51.03;;;;;;;1.03;99.65;95835.56;5044301;28;20032;-64
2023/03/03 06:48:28;;;;;;;58.38;50.95;;;;;;;1.08;98.39;95834.41;5035787;28;20036;-64
2023/03/03 06:50:53;;;;;;;66.15;53.78;;;;;;;1.06;99.62;95841.44;5047753;28;20033;-63
2023/03/03 06:53:18;;;;;;;66.57;52.50;;;;;;;1.11;98.36;95841.22;5049323;28;20037;-66
2023/03/03 06:55:44;;;;;;;62.90;54.85;;;;;;;1.21;97.26;95844.13;5053432;28;20021;-66
2023/03/03 06:58:16;;;;;;;69.28;56.58;;;;;;;1.29;97.40;95842.81;5051241;28;20388;-64
2023/03/03 07:00:44;;;;;;;67.95;57.13;;;;;;;1.24;97.08;95846.59;5044907;28;20347;-65
2023/03/03 07:03:17;;;;;;;82.55;64.47;;;;;;;1.23;96.69;95852.69;5041179;28;20479;-60
2023/03/03 07:05:43;;;;;;;81.30;66.90;;;;;;;1.31;96.05;95855.72;5038073;28;20048;-64
2023/03/03 07:08:15;;;;;;;96.82;76.80;;;;;;;1.29;95.47;95844.59;5036283;28;20025;-66
2023/03/03 07:10:41;;;;;;;107.97;84.53;;;;;;;1.24;95.92;95850.00;5041974;28;20068;-64
2023/03/03 07:13:20;;;;;;;89.18;76.97;;;;;;;1.26;96.22;95847.34;5048375;28;20049;-67
2023/03/03 07:15:47;;;;;;;83.63;71.32;;;;;;;1.18;96.17;95857.25;5032661;28;20029;-64
2023/03/03 07:18:41;;;;;;;70.72;59.30;;;;;;;1.27;95.45;95851.59;5049131;28;20035;-63
2023/03/03 07:21:18;;;;;;;68.68;58.25;;;;;;;1.25;95.31;95853.44;5042261;28;20063;-66
2023/03/03 07:23:46;;;;;;;71.55;61.15;;;;;;;1.25;96.27;95856.03;5050048;28;20120;-65
2023/03/03 07:26:16;;;;;;;75.65;62.97;;;;;;;1.27;95.00;95854.19;5038867;28;20386;-67
2023/03/03 07:28:44;;;;;;;73.07;61.55;;;;;;;1.35;95.13;95854.63;5050062;28;20514;-68
2023/03/03 07:31:30;;;;;;;72.28;62.40;;;;;;;1.38;94.67;95849.25;5038056;28;20025;-66
2023/03/03 07:33:58;;;;;;;73.75;61.92;;;;;;;1.34;95.17;95858.13;5044325;28;20409;-67
2023/03/03 07:36:30;;;;;;;73.82;60.60;;;;;;;1.48;94.29;95860.00;5049449;28;20032;-66
2023/03/03 07:39:04;;;;;;;73.18;61.78;;;;;;;1.55;93.93;95860.50;5060627;28;20023;-66
2023/03/03 07:41:29;;;;;;;77.00;63.08;;;;;;;1.60;94.06;95850.72;5049753;28;20067;-64
2023/03/03 07:44:00;;;;;;;79.22;65.30;;;;;;;1.65;93.46;95853.88;5052211;28;20055;-63
2023/03/03 07:46:47;;;;;;;73.65;62.40;;;;;;;1.81;92.77;95848.72;5059478;28;20112;-63
2023/03/03 07:49:24;;;;;;;77.88;66.28;;;;;;;1.93;92.68;95856.75;5036955;28;20021;-63
2023/03/03 07:51:53;;;;;;;78.90;67.63;;;;;;;2.01;91.28;95854.56;5049866;28;20036;-63
2023/03/03 07:54:29;;;;;;;77.70;65.95;;;;;;;2.07;92.58;95843.84;5049997;28;20033;-63
2023/03/03 07:57:10;;;;;;;83.22;71.57;;;;;;;2.29;91.19;95847.81;5036644;28;20540;-63
2023/03/03 07:59:37;;;;;;;86.13;73.93;;;;;;;2.39;90.65;95848.13;5049681;28;20025;-63
2023/03/03 08:02:17;;;;;;;86.15;68.55;;;;;;;2.51;90.62;95849.19;5030726;28;20032;-69
2023/03/03 08:04:49;;;;;;;81.03;71.88;;;;;;;2.57;90.84;95854.88;5039909;28;20091;-67
2023/03/03 08:07:19;;;;;;;77.57;64.70;;;;;;;2.66;89.42;95848.31;5047869;28;20031;-67
2023/03/03 08:09:50;;;;;;;73.72;63.47;;;;;;;2.77;89.90;95855.50;5055762;28;20044;-66
2023/03/03 08:12:27;;;;;;;80.80;67.38;;;;;;;2.82;88.62;95861.25;5048781;28;20037;-66
2023/03/03 08:14:54;;;;;;;77.22;64.43;;;;;;;2.79;88.25;95860.59;5047993;28;20490;-67
2023/03/03 08:17:23;;;;;;;77.82;67.65;;;;;;;2.80;88.74;95862.25;5047262;28;20036;-66
2023/03/03 08:19:50;;;;;;;68.38;60.47;;;;;;;2.92;87.73;95864.16;5051109;28;20025;-61
2023/03/03 08:22:34;;;;;;;79.80;60.90;;;;;;;2.96;87.74;95852.63;5052837;28;20414;-63
2023/03/03 08:25:00;;;;;;;75.25;61.95;;;;;;;2.97;87.53;95861.25;5042624;28;20032;-63
2023/03/03 08:27:25;;;;;;;73.28;62.83;;;;;;;2.82;87.72;95857.78;5052807;28;20028;-63
2023/03/03 08:29:50;;;;;;;73.03;61.88;;;;;;;2.82;87.71;95855.19;5037982;28;20013;-63
2023/03/03 08:32:16;;;;;;;73.28;60.80;;;;;;;2.86;87.29;95865.34;5048151;28;20097;-63
2023/03/03 08:34:41;;;;;;;76.43;64.15;;;;;;;3.03;86.50;95862.66;5055854;28;20032;-63
2023/03/03 08:37:06;;;;;;;83.15;64.13;;;;;;;3.18;86.15;95864.34;5055986;28;20025;-63
2023/03/03 08:39:32;;;;;;;83.18;64.95;;;;;;;3.21;85.16;95858.16;5042856;28;20490;-57
2023/03/03 08:41:57;;;;;;;75.00;63.88;;;;;;;3.20;84.57;95865.09;5047306;28;20028;-64
2023/03/03 08:44:23;;;;;;;69.60;61.95;;;;;;;3.17;84.90;95865.28;5052714;28;20039;-56
2023/03/03 08:46:48;;;;;;;75.45;62.13;;;;;;;3.17;84.41;95861.84;5049724;28;20029;-56
2023/03/03 08:49:13;;;;;;;73.03;61.42;;;;;;;3.26;85.13;95859.50;5036098;28;20025;-57
2023/03/03 08:51:39;;;;;;;77.82;66.00;;;;;;;3.27;84.45;95855.97;5037894;28;20026;-57
2023/03/03 08:54:04;;;;;;;77.70;63.03;;;;;;;3.30;84.17;95857.56;5042122;28;20025;-58
2023/03/03 08:56:30;;;;;;;71.53;60.67;;;;;;;3.62;84.37;95865.16;5045808;28;20048;-57
2023/03/03 08:58:55;;;;;;;74.35;62.90;;;;;;;3.72;83.05;95855.88;5048696;28;20021;-62
2023/03/03 09:01:20;;;;;;;74.20;64.32;;;;;;;3.76;82.42;95863.47;5048791;28;20486;-70
2023/03/03 09:03:46;;;;;;;74.38;62.35;;;;;;;3.62;82.51;95865.16;5047983;28;20134;-63
2023/03/03 09:06:11;;;;;;;80.15;66.15;;;;;;;3.60;82.64;95869.63;5047475;28;20052;-63
2023/03/03 09:08:37;;;;;;;74.72;65.97;;;;;;;3.78;82.17;95874.63;5044087;28;20028;-64
2023/03/03 09:11:09;;;;;;;73.70;65.32;;;;;;;3.83;81.52;95865.63;5054442;28;20029;-63
2023/03/03 09:13:34;;;;;;;82.30;65.95;;;;;;;3.78;82.41;95872.03;5042980;28;20037;-64
2023/03/03 09:15:59;;;;;;;76.40;66.85;;;;;;;3.87;82.04;95861.06;5040251;28;20031;-63
2023/03/03 09:18:34;;;;;;;79.72;66.63;;;;;;;3.93;81.64;95873.69;5045875;28;20544;-65
2023/03/03 09:20:59;;;;;;;79.55;67.90;;;;;;;4.07;80.71;95869.34;5036341;28;20216;-71
2023/03/03 09:23:36;;;;;;;86.75;70.70;;;;;;;4.03;79.89;95873.09;5047925;28;20110;-70
2023/03/03 09:26:29;;;;;;;82.93;69.53;;;;;;;4.00;80.38;95874.97;5030796;28;20078;-71
2023/03/03 09:29:22;;;;;;;80.95;66.10;;;;;;;4.04;79.51;95873.00;5047584;28;20048;-71
2023/03/03 09:31:50;;;;;;;81.60;68.30;;;;;;;4.20;79.92;95872.88;5037699;28;20049;-71
2023/03/03 09:34:23;;;;;;;86.18;70.90;;;;;;;4.33;78.75;95875.50;5028570;28;20444;-70
2023/03/03 09:36:50;;;;;;;81.32;68.85;;;;;;;4.39;78.35;95869.06;5047689;28;20021;-64
2023/03/03 09:39:18;;;;;;;82.10;70.40;;;;;;;4.46;78.31;95865.13;5045031;28;20557;-59
2023/03/03 09:42:08;;;;;;;80.80;68.10;;;;;;;4.62;77.01;95859.72;5043042;28;20036;-63
2023/03/03 09:44:52;;;;;;;88.18;72.13;;;;;;;4.51;77.81;95872.66;5048060;28;20035;-62
2023/03/03 09:47:26;;;;;;;79.88;68.65;;;;;;;4.41;78.63;95881.06;5050452;28;20017;-63
2023/03/03 09:50:23;;;;;;;78.28;68.00;;;;;;;4.49;77.95;95882.34;5046804;28;20040;-63
2023/03/03 09:53:01;;;;;;;76.70;64.75;;;;;;;4.71;76.86;95877.41;5034732;28;20067;-63
2023/03/03 09:55:54;;;;;;;77.05;66.35;;;;;;;4.51;77.63;95878.69;5044630;28;20109;-63
2023/03/03 09:58:36;;;;;;;80.13;64.65;;;;;;;4.70;76.69;95880.94;5040842;28;20071;-63
2023/03/03 10:01:39;;;;;;;82.40;67.75;;;;;;;4.67;76.87;95881.16;5053314;28;20159;-64
2023/03/03 10:04:38;;;;;;;76.10;63.92;;;;;;;4.93;75.87;95877.75;5043790;28;20025;-64
2023/03/03 10:07:28;;;;;;;80.50;67.68;;;;;;;4.94;75.78;95879.41;5050254;28;20494;-64
2023/03/03 10:10:12;;;;;;;80.15;71.15;;;;;;;4.86;76.04;95885.13;5055022;28;20146;-64
2023/03/03 10:13:02;;;;;;;87.90;71.68;;;;;;;4.92;76.20;95886.50;5043663;28;20025;-64
2023/03/03 10:15:38;;;;;;;82.13;68.70;;;;;;;4.77;75.31;95877.94;5036816;28;20052;-65
2023/03/03 10:18:18;;;;;;;82.60;67.10;;;;;;;4.95;74.55;95887.16;5042805;28;20510;-63
2023/03/03 10:20:58;;;;;;;75.78;67.38;;;;;;;4.89;75.01;95884.94;5037716;28;20032;-59
2023/03/03 10:23:41;;;;;;;76.88;65.40;;;;;;;5.02;74.76;95880.56;5040471;28;20039;-59
2023/03/03 10:26:34;;;;;;;74.60;65.70;;;;;;;5.28;73.54;95872.75;5038821;28;20036;-58
2023/03/03 10:29:08;;;;;;;72.47;63.47;;;;;;;6.11;71.93;95875.78;5041049;28;20027;-59
2023/03/03 10:32:09;;;;;;;75.32;65.00;;;;;;;6.75;67.65;95879.06;5039323;28;20025;-59
2023/03/03 10:35:08;;;;;;;73.80;62.20;;;;;;;7.12;66.43;95883.31;5006857;28;20469;-59
2023/03/03 10:38:01;;;;;;;73.40;65.07;;;;;;;7.42;66.13;95876.69;5045203;28;20765;-63
2023/03/03 10:40:31;;;;;;;77.03;62.25;;;;;;;7.63;62.82;95878.59;5050645;28;20486;-65
2023/03/03 10:43:10;;;;;;;75.55;62.78;;;;;;;8.24;62.12;95870.31;5051303;28;20088;-65
2023/03/03 10:45:48;;;;;;;71.65;61.80;;;;;;;7.85;62.32;95880.41;5064385;28;20017;-65
2023/03/03 10:48:28;;;;;;;68.55;58.58;;;;;;;7.72;63.16;95876.09;5050203;28;20025;-64
2023/03/03 10:51:15;;;;;;;71.32;56.50;;;;;;;7.76;61.27;95878.47;5043562;28;20024;-64
2023/03/03 10:54:09;;;;;;;73.47;60.38;;;;;;;7.50;64.37;95873.47;5050851;28;20047;-64
2023/03/03 10:57:12;;;;;;;71.55;62.08;;;;;;;7.83;63.59;95869.19;5040650;28;20049;-63
2023/03/03 10:59:50;;;;;;;69.25;61.15;;;;;;;8.43;60.15;95868.81;5040719;28;20064;-62
2023/03/03 11:02:21;;;;;;;71.10;60.40;;;;;;;8.22;59.68;95868.78;5044112;28;20598;-62
2023/03/03 11:05:15;;;;;;;69.10;57.92;;;;;;;8.20;59.94;95866.28;5048080;28;20033;-62
2023/03/03 11:07:56;;;;;;;67.72;58.05;;;;;;;7.45;61.68;95868.59;5040628;28;20056;-62
2023/03/03 11:10:49;;;;;;;65.93;56.90;;;;;;;7.41;61.90;95860.16;5050453;28;20074;-62
2023/03/03 11:13:37;;;;;;;78.30;64.25;;;;;;;6.94;65.51;95864.56;5054327;28;20094;-62
2023/03/03 11:16:09;;;;;;;74.70;61.05;;;;;;;6.89;65.74;95864.94;5034820;28;20022;-63
2023/03/03 11:19:00;;;;;;;75.82;66.38;;;;;;;6.18;68.86;95863.09;5049193;28;20024;-62
2023/03/03 11:21:39;;;;;;;73.20;64.88;;;;;;;6.04;69.56;95864.09;5051934;28;20033;-63
2023/03/03 11:24:23;;;;;;;76.03;65.45;;;;;;;6.51;68.51;95868.59;5051851;28;20029;-62
2023/03/03 11:27:05;;;;;;;76.78;64.93;;;;;;;6.46;67.99;95861.09;5050563;28;20539;-63
2023/03/03 11:30:12;;;;;;;78.20;64.40;;;;;;;6.16;69.58;95865.00;5023418;28;20117;-62
2023/03/03 11:33:00;;;;;;;85.07;69.30;;;;;;;6.20;68.88;95863.00;5014207;28;20041;-62
2023/03/03 11:35:36;;;;;;;87.90;64.18;;;;;;;6.35;68.46;95858.44;5042249;28;20653;-58
2023/03/03 11:38:19;;;;;;;75.38;64.85;;;;;;;6.42;68.20;95857.03;5047824;28;20035;-54